createdAt,value
2022-12-20T00:00:10.036Z,66.07
2022-12-20T00:02:39.870Z,65.41
2022-12-20T00:05:21.068Z,65.35
2022-12-20T00:07:49.678Z,64.61
2022-12-20T00:10:21.867Z,65.32
2022-12-20T00:12:53.947Z,65.49
2022-12-20T00:15:27.161Z,66.39
2022-12-20T00:18:01.224Z,66.92
2022-12-20T00:20:30.263Z,67.51
2022-12-20T00:22:59.996Z,67.71
2022-12-20T00:25:33.321Z,70.21
2022-12-20T00:28:05.446Z,71.43
2022-12-20T00:30:37.066Z,73.69
2022-12-20T00:33:07.063Z,75.01
2022-12-20T00:35:35.272Z,74.31
2022-12-20T00:38:04.977Z,72.78
2022-12-20T00:40:36.512Z,68.24
2022-12-20T00:43:04.728Z,68.84
2022-12-20T00:45:38.084Z,66.70
2022-12-20T00:48:12.637Z,63.72
2022-12-20T00:50:41.952Z,64.52
2022-12-20T00:53:10.939Z,67.63
2022-12-20T00:55:43.085Z,68.18
2022-12-20T00:58:11.566Z,66.59
2022-12-20T01:00:40.472Z,68.79
2022-12-20T01:03:09.033Z,69.34
2022-12-20T01:05:36.825Z,68.03
2022-12-20T01:08:05.081Z,69.39
2022-12-20T01:10:32.955Z,70.13
2022-12-20T01:13:00.607Z,70.50
2022-12-20T01:15:29.139Z,68.52
2022-12-20T01:17:58.207Z,70.76
2022-12-20T01:20:25.691Z,70.55
2022-12-20T01:22:53.285Z,71.17
2022-12-20T01:25:20.946Z,70.44
2022-12-20T01:27:48.484Z,70.34
2022-12-20T01:30:54.758Z,72.60
2022-12-20T01:33:45.988Z,72.41
2022-12-20T01:37:04.062Z,71.54
2022-12-20T01:40:13.335Z,71.37
2022-12-20T01:42:40.970Z,69.86
2022-12-20T01:45:13.771Z,71.42
2022-12-20T01:47:41.576Z,71.77
2022-12-20T01:50:09.695Z,73.71
2022-12-20T01:52:43.809Z,73.83
2022-12-20T01:55:17.261Z,74.12
2022-12-20T01:58:13.647Z,72.86
2022-12-20T02:00:41.279Z,72.65
2022-12-20T02:03:12.423Z,73.18
2022-12-20T02:05:45.459Z,71.82
2022-12-20T02:08:16.505Z,70.71
2022-12-20T02:10:51.565Z,71.37
2022-12-20T02:13:54.480Z,73.65
2022-12-20T02:16:28.102Z,73.90
2022-12-20T02:20:01.287Z,69.87
2022-12-20T02:23:09.014Z,70.38
2022-12-20T02:25:55.105Z,71.22
2022-12-20T02:28:28.724Z,68.96
2022-12-20T02:31:03.560Z,69.07
2022-12-20T02:33:31.562Z,69.29
2022-12-20T02:36:00.030Z,70.03
2022-12-20T02:38:35.240Z,69.47
2022-12-20T02:41:26.348Z,68.02
2022-12-20T02:44:19.245Z,66.79
2022-12-20T02:46:49.736Z,67.46
2022-12-20T02:49:20.161Z,65.89
2022-12-20T02:51:49.827Z,65.71
2022-12-20T02:54:18.425Z,68.38
2022-12-20T02:57:08.125Z,70.96
2022-12-20T02:59:56.257Z,71.02
2022-12-20T03:02:26.307Z,67.08
2022-12-20T03:04:55.772Z,66.76
2022-12-20T03:07:23.639Z,65.52
2022-12-20T03:09:51.529Z,67.52
2022-12-20T03:12:19.141Z,69.27
2022-12-20T03:14:46.699Z,68.34
2022-12-20T03:17:15.329Z,69.69
2022-12-20T03:19:43.184Z,71.57
2022-12-20T03:22:11.382Z,73.32
2022-12-20T03:24:39.062Z,73.81
2022-12-20T03:27:12.339Z,74.12
2022-12-20T03:29:40.031Z,74.23
2022-12-20T03:32:08.447Z,75.29
2022-12-20T03:34:36.075Z,76.53
2022-12-20T03:37:04.365Z,77.50
2022-12-20T03:39:32.209Z,76.38
2022-12-20T03:42:00.778Z,77.23
2022-12-20T03:44:28.389Z,76.71
2022-12-20T03:46:56.316Z,71.66
2022-12-20T03:49:24.003Z,72.27
2022-12-20T03:51:52.554Z,72.49
2022-12-20T03:54:20.537Z,74.02
2022-12-20T03:57:04.179Z,75.16
2022-12-20T03:59:32.426Z,75.95
2022-12-20T04:02:01.918Z,75.92
2022-12-20T04:04:30.611Z,74.39
2022-12-20T04:06:58.135Z,74.07
2022-12-20T04:09:26.205Z,74.68
2022-12-20T04:11:59.177Z,75.99
2022-12-20T04:14:28.014Z,78.91
2022-12-20T04:16:55.892Z,81.27
2022-12-20T04:19:24.296Z,79.48
2022-12-20T04:21:51.900Z,78.77
2022-12-20T04:24:21.065Z,75.62
2022-12-20T04:27:06.892Z,74.55
2022-12-20T04:29:35.072Z,70.02
2022-12-20T04:32:04.065Z,71.30
2022-12-20T04:34:31.738Z,70.87
2022-12-20T04:36:59.951Z,69.94
2022-12-20T04:39:38.727Z,71.45
2022-12-20T04:42:35.241Z,73.33
2022-12-20T04:45:04.581Z,73.60
2022-12-20T04:47:32.246Z,73.56
2022-12-20T04:50:00.250Z,73.02
2022-12-20T04:52:48.275Z,72.07
2022-12-20T04:55:17.222Z,74.32
2022-12-20T04:57:45.664Z,75.34
2022-12-20T05:00:15.733Z,75.59
2022-12-20T05:02:46.687Z,74.87
2022-12-20T05:05:17.660Z,74.56
2022-12-20T05:10:37.520Z,74.38
2022-12-20T05:13:09.234Z,67.09
2022-12-20T05:15:43.863Z,66.01
2022-12-20T05:18:12.436Z,68.19
2022-12-20T05:21:16.203Z,71.49
2022-12-20T05:24:04.950Z,75.51
2022-12-20T05:26:38.850Z,81.04
2022-12-20T05:29:06.496Z,83.54
2022-12-20T05:31:35.101Z,89.15
2022-12-20T05:34:03.628Z,97.93
2022-12-20T05:36:35.352Z,100.00
2022-12-20T05:39:06.405Z,100.00
2022-12-20T05:41:37.693Z,100.00
2022-12-20T05:44:08.327Z,100.00
2022-12-20T05:46:38.899Z,100.00
2022-12-20T05:49:11.888Z,100.00
2022-12-20T05:51:39.587Z,100.00
2022-12-20T05:54:26.422Z,100.00
2022-12-20T05:57:03.384Z,100.00
2022-12-20T05:59:35.866Z,100.00
2022-12-20T06:02:06.498Z,100.00
2022-12-20T06:04:35.797Z,90.06
2022-12-20T06:07:11.163Z,78.45
2022-12-20T06:09:39.336Z,76.69
2022-12-20T06:12:12.021Z,68.01
2022-12-20T06:14:40.639Z,67.52
2022-12-20T06:17:08.362Z,58.62
2022-12-20T06:19:36.480Z,60.64
2022-12-20T06:22:04.335Z,60.44
2022-12-20T06:24:51.147Z,63.52
2022-12-20T06:27:23.727Z,66.52
2022-12-20T06:30:14.791Z,63.83
2022-12-20T06:33:05.100Z,55.51
2022-12-20T06:35:33.270Z,55.57
2022-12-20T06:38:01.306Z,55.96
2022-12-20T06:40:32.695Z,58.50
2022-12-20T06:43:02.177Z,57.27
2022-12-20T06:45:31.729Z,52.23
2022-12-20T06:48:02.470Z,48.22
2022-12-20T06:50:33.684Z,52.21
2022-12-20T06:53:01.559Z,52.56
2022-12-20T06:55:29.443Z,51.75
2022-12-20T06:57:57.271Z,49.33
2022-12-20T07:00:26.524Z,46.96
2022-12-20T07:02:55.211Z,45.44
2022-12-20T07:05:41.983Z,45.16
2022-12-20T07:08:10.144Z,43.21
2022-12-20T07:10:57.237Z,46.81
2022-12-20T07:13:24.996Z,44.04
2022-12-20T07:15:59.739Z,43.22
2022-12-20T07:18:27.593Z,41.93
2022-12-20T07:20:55.567Z,41.75
2022-12-20T07:23:23.176Z,40.85
2022-12-20T07:25:58.583Z,42.53
2022-12-20T07:28:27.740Z,42.18
2022-12-20T07:30:55.629Z,41.96
2022-12-20T07:33:23.335Z,41.61
2022-12-20T07:35:54.495Z,41.00
2022-12-20T07:38:22.819Z,39.31
2022-12-20T07:40:50.895Z,40.09
2022-12-20T07:43:18.742Z,38.69
2022-12-20T07:45:47.830Z,39.32
2022-12-20T07:48:19.724Z,37.41
2022-12-20T07:50:49.394Z,38.66
2022-12-20T07:53:18.342Z,37.74
2022-12-20T07:55:46.600Z,37.63
2022-12-20T07:58:15.766Z,38.46
2022-12-20T08:00:44.416Z,38.99
2022-12-20T08:03:21.461Z,40.22
2022-12-20T08:05:55.909Z,41.16
2022-12-20T08:08:24.511Z,39.19
2022-12-20T08:10:52.782Z,38.85
2022-12-20T08:13:20.565Z,39.30
2022-12-20T08:15:48.407Z,40.58
2022-12-20T08:18:16.636Z,39.25
2022-12-20T08:20:44.566Z,39.89
2022-12-20T08:23:12.231Z,41.99
2022-12-20T08:25:42.035Z,42.25
2022-12-20T08:28:10.399Z,47.67
2022-12-20T08:30:38.405Z,47.85
2022-12-20T08:33:06.567Z,50.83
2022-12-20T08:35:34.361Z,49.73
2022-12-20T08:38:02.053Z,48.39
2022-12-20T08:40:29.869Z,47.58
2022-12-20T08:42:59.883Z,46.12
2022-12-20T08:45:29.518Z,46.43
2022-12-20T08:47:57.303Z,46.82
2022-12-20T08:50:27.328Z,43.60
2022-12-20T08:52:54.905Z,45.43
2022-12-20T08:55:27.737Z,51.89
2022-12-20T08:57:57.280Z,47.24
2022-12-20T09:00:25.011Z,45.51
2022-12-20T09:02:55.365Z,45.80
2022-12-20T09:05:23.346Z,44.81
2022-12-20T09:07:51.021Z,46.14
2022-12-20T09:10:18.830Z,48.31
2022-12-20T09:12:46.610Z,46.82
2022-12-20T09:15:14.626Z,47.65
2022-12-20T09:17:42.423Z,51.46
2022-12-20T09:20:10.511Z,52.89
2022-12-20T09:22:38.198Z,51.02
2022-12-20T09:25:07.458Z,50.60
2022-12-20T09:27:35.305Z,49.50
2022-12-20T09:30:03.060Z,46.93
2022-12-20T09:32:31.818Z,46.17
2022-12-20T09:34:59.349Z,49.67
2022-12-20T09:37:27.088Z,53.26
2022-12-20T09:39:54.765Z,54.00
2022-12-20T09:42:27.280Z,53.62
2022-12-20T09:45:06.883Z,52.72
2022-12-20T09:47:38.127Z,54.77
2022-12-20T09:50:07.898Z,57.02
2022-12-20T09:52:40.613Z,58.73
2022-12-20T09:55:18.067Z,58.54
2022-12-20T09:58:10.439Z,57.35
2022-12-20T10:00:53.516Z,58.53
2022-12-20T10:03:32.098Z,56.19
2022-12-20T10:06:09.414Z,57.50
2022-12-20T10:09:12.561Z,59.17
2022-12-20T10:12:02.009Z,56.92
2022-12-20T10:14:44.962Z,56.98
2022-12-20T10:17:44.614Z,56.17
2022-12-20T10:20:12.121Z,53.68
2022-12-20T10:22:53.229Z,52.67
2022-12-20T10:25:30.582Z,52.73
2022-12-20T10:28:01.028Z,52.77
2022-12-20T10:30:30.427Z,52.32
2022-12-20T10:32:59.212Z,50.52
2022-12-20T10:35:31.602Z,48.27
2022-12-20T10:38:07.565Z,51.81
2022-12-20T10:41:10.628Z,50.69
2022-12-20T10:43:28.862Z,52.00
2022-12-20T10:46:01.281Z,50.96
2022-12-20T10:48:33.562Z,50.32
2022-12-20T10:51:16.081Z,50.62
2022-12-20T10:54:01.501Z,51.38
2022-12-20T10:56:38.951Z,50.09
2022-12-20T10:59:18.737Z,49.49
2022-12-20T11:01:48.445Z,49.93
2022-12-20T11:04:36.962Z,47.59
2022-12-20T11:07:24.953Z,50.36
2022-12-20T11:09:56.772Z,49.72
2022-12-20T11:12:24.597Z,48.32
2022-12-20T11:15:08.883Z,49.35
2022-12-20T11:17:49.154Z,50.00
2022-12-20T11:20:26.911Z,47.46
2022-12-20T11:23:32.861Z,48.43
2022-12-20T11:26:30.567Z,48.91
2022-12-20T11:29:39.561Z,48.86
2022-12-20T11:32:16.873Z,50.77
2022-12-20T11:35:11.517Z,50.45
2022-12-20T11:38:08.976Z,49.79
2022-12-20T11:40:50.614Z,48.99
2022-12-20T11:44:15.327Z,48.25
2022-12-20T11:46:49.046Z,47.16
2022-12-20T11:49:26.547Z,46.67
2022-12-20T11:52:01.529Z,46.98
2022-12-20T11:55:08.245Z,48.59
2022-12-20T12:00:53.864Z,45.62
2022-12-20T12:03:28.601Z,47.04
2022-12-20T12:06:07.131Z,47.82
2022-12-20T12:08:50.455Z,47.59
2022-12-20T12:12:04.061Z,47.67
2022-12-20T12:14:31.667Z,48.01
2022-12-20T12:17:08.448Z,47.42
2022-12-20T12:19:41.465Z,48.25
2022-12-20T12:22:17.872Z,46.89
2022-12-20T12:24:52.953Z,47.72
2022-12-20T12:27:27.014Z,47.81
2022-12-20T12:29:58.328Z,47.06
2022-12-20T12:32:44.153Z,45.97
2022-12-20T12:35:39.824Z,45.73
2022-12-20T12:38:29.215Z,46.80
2022-12-20T12:41:15.859Z,47.67
2022-12-20T12:43:48.508Z,48.46
2022-12-20T12:46:27.788Z,48.47
2022-12-20T12:49:05.536Z,47.00
2022-12-20T12:51:39.992Z,48.37
2022-12-20T12:54:10.574Z,48.14
2022-12-20T12:56:46.416Z,48.99
2022-12-20T12:59:20.399Z,48.04
2022-12-20T13:02:14.568Z,47.83
2022-12-20T13:05:01.934Z,48.81
2022-12-20T13:07:33.726Z,49.60
2022-12-20T13:10:29.861Z,48.10
2022-12-20T13:13:02.261Z,48.79
2022-12-20T13:15:32.849Z,49.22
2022-12-20T13:18:18.101Z,48.75
2022-12-20T13:21:20.575Z,48.80
2022-12-20T13:23:48.397Z,48.07
2022-12-20T13:26:52.203Z,48.21
2022-12-20T13:29:28.432Z,48.60
2022-12-20T13:31:56.470Z,48.13
2022-12-20T13:34:54.960Z,49.01
2022-12-20T13:37:54.825Z,47.95
2022-12-20T13:41:10.992Z,48.75
2022-12-20T13:43:45.109Z,47.53
2022-12-20T13:46:21.917Z,51.11
2022-12-20T13:49:03.945Z,50.21
2022-12-20T13:51:38.379Z,48.99
2022-12-20T13:54:25.202Z,47.65
2022-12-20T13:57:09.059Z,48.24
2022-12-20T13:59:37.167Z,49.25
2022-12-20T14:02:18.469Z,49.37
2022-12-20T14:05:04.583Z,50.04
2022-12-20T14:07:34.895Z,50.40
2022-12-20T14:10:26.483Z,50.29
2022-12-20T14:12:55.139Z,49.24
2022-12-20T14:15:34.651Z,49.45
2022-12-20T14:18:15.915Z,49.12
2022-12-20T14:20:44.191Z,49.28
2022-12-20T14:23:16.713Z,48.28
2022-12-20T14:25:51.298Z,49.26
2022-12-20T14:28:31.940Z,48.64
2022-12-20T14:31:06.508Z,47.29
2022-12-20T14:33:38.703Z,49.23
2022-12-20T14:36:20.271Z,48.65
2022-12-20T14:38:50.880Z,48.61
2022-12-20T14:41:40.609Z,49.07
2022-12-20T14:44:08.202Z,49.15
2022-12-20T14:46:36.422Z,48.71
2022-12-20T14:49:25.348Z,48.56
2022-12-20T14:52:06.921Z,47.99
2022-12-20T14:57:44.437Z,49.64
2022-12-20T15:00:15.161Z,48.97
2022-12-20T15:02:55.047Z,49.09
2022-12-20T15:05:35.509Z,47.76
2022-12-20T15:08:27.548Z,49.87
2022-12-20T15:10:55.359Z,50.20
2022-12-20T15:13:28.228Z,49.80
2022-12-20T15:15:58.386Z,49.60
2022-12-20T15:18:26.114Z,49.41
2022-12-20T15:21:12.869Z,51.34
2022-12-20T15:23:49.965Z,49.52
2022-12-20T15:26:26.800Z,49.21
2022-12-20T15:28:55.398Z,49.32
2022-12-20T15:31:32.602Z,50.09
2022-12-20T15:34:08.459Z,51.58
2022-12-20T15:36:36.098Z,49.92
2022-12-20T15:39:13.642Z,50.29
2022-12-20T15:41:49.996Z,50.29
2022-12-20T15:44:21.257Z,49.46
2022-12-20T15:46:50.094Z,48.56
2022-12-20T15:49:23.774Z,50.20
2022-12-20T15:51:53.162Z,50.29
2022-12-20T15:54:36.056Z,49.43
2022-12-20T15:57:10.148Z,48.21
2022-12-20T16:02:28.489Z,47.25
2022-12-20T16:04:57.960Z,49.52
2022-12-20T16:07:26.139Z,48.89
2022-12-20T16:09:54.654Z,48.87
2022-12-20T16:12:36.341Z,49.90
2022-12-20T16:15:04.339Z,50.08
2022-12-20T16:17:32.294Z,49.20
2022-12-20T16:20:00.304Z,49.32
2022-12-20T16:22:28.206Z,49.11
2022-12-20T16:24:56.224Z,48.54
2022-12-20T16:27:23.870Z,48.17
2022-12-20T16:29:51.464Z,49.35
2022-12-20T16:32:22.101Z,48.26
2022-12-20T16:34:51.255Z,49.67
2022-12-20T16:37:19.137Z,48.98
2022-12-20T16:39:47.814Z,48.43
2022-12-20T16:42:18.318Z,49.15
2022-12-20T16:44:46.435Z,48.96
2022-12-20T16:47:16.554Z,47.73
2022-12-20T16:49:53.288Z,47.70
2022-12-20T16:52:28.231Z,46.81
2022-12-20T16:54:56.572Z,48.67
2022-12-20T16:57:24.166Z,49.26
2022-12-20T16:59:55.730Z,50.13
2022-12-20T17:02:29.637Z,50.42
2022-12-20T17:04:58.076Z,50.63
2022-12-20T17:07:26.113Z,49.84
2022-12-20T17:10:12.841Z,48.48
2022-12-20T17:12:40.618Z,49.24
2022-12-20T17:15:18.037Z,46.97
2022-12-20T17:17:46.155Z,49.11
2022-12-20T17:20:15.138Z,51.41
2022-12-20T17:25:33.335Z,50.98
2022-12-20T17:28:01.044Z,50.69
2022-12-20T17:30:28.788Z,50.72
2022-12-20T17:32:56.357Z,50.46
2022-12-20T17:35:32.960Z,48.65
2022-12-20T17:38:02.176Z,48.35
2022-12-20T17:40:29.990Z,49.40
2022-12-20T17:42:57.643Z,49.57
2022-12-20T17:45:36.526Z,51.58
2022-12-20T17:48:05.512Z,49.60
2022-12-20T17:50:33.254Z,49.03
2022-12-20T17:53:01.485Z,50.09
2022-12-20T17:55:29.446Z,48.79
2022-12-20T17:57:57.228Z,49.58
2022-12-20T18:00:34.585Z,49.11
2022-12-20T18:03:04.542Z,49.54
2022-12-20T18:05:32.344Z,49.08
2022-12-20T18:08:00.065Z,50.94
2022-12-20T18:10:27.802Z,50.33
2022-12-20T18:12:55.499Z,49.51
2022-12-20T18:15:23.298Z,51.49
2022-12-20T18:17:51.190Z,49.46
2022-12-20T18:20:18.892Z,48.22
2022-12-20T18:22:46.613Z,48.48
2022-12-20T18:25:14.322Z,49.41
2022-12-20T18:27:43.273Z,48.66
2022-12-20T18:30:13.187Z,46.84
2022-12-20T18:32:41.577Z,46.95
2022-12-20T18:35:10.192Z,47.88
2022-12-20T18:37:38.021Z,47.34
2022-12-20T18:40:06.392Z,47.78
2022-12-20T18:42:36.248Z,47.71
2022-12-20T18:45:04.303Z,47.30
2022-12-20T18:47:35.620Z,46.34
2022-12-20T18:50:03.404Z,47.26
2022-12-20T18:52:31.981Z,46.18
2022-12-20T18:54:59.730Z,45.23
2022-12-20T18:57:27.627Z,45.45
2022-12-20T18:59:55.353Z,44.64
2022-12-20T19:02:23.134Z,46.06
2022-12-20T19:04:50.935Z,45.67
2022-12-20T19:07:18.633Z,45.13
2022-12-20T19:09:46.167Z,45.85
2022-12-20T19:12:13.836Z,46.37
2022-12-20T19:14:41.597Z,46.49
2022-12-20T19:17:09.440Z,46.17
2022-12-20T19:19:37.148Z,45.17
2022-12-20T19:22:04.928Z,46.31
2022-12-20T19:24:32.616Z,45.57
2022-12-20T19:27:00.316Z,45.37
2022-12-20T19:29:27.937Z,45.62
2022-12-20T19:31:55.820Z,45.72
2022-12-20T19:34:23.533Z,45.99
2022-12-20T19:36:52.201Z,46.13
2022-12-20T19:39:23.714Z,46.16
2022-12-20T19:42:22.191Z,47.21
2022-12-20T19:44:40.033Z,47.05
2022-12-20T19:47:07.887Z,46.64
2022-12-20T19:49:38.154Z,46.83
2022-12-20T19:52:07.154Z,47.28
2022-12-20T19:54:35.649Z,47.92
2022-12-20T19:57:03.362Z,47.67
2022-12-20T19:59:31.132Z,47.16
2022-12-20T20:01:59.030Z,47.00
2022-12-20T20:04:32.559Z,47.00
2022-12-20T20:07:00.272Z,47.26
2022-12-20T20:09:30.027Z,47.19
2022-12-20T20:11:58.228Z,47.03
2022-12-20T20:14:26.019Z,46.97
2022-12-20T20:16:53.743Z,45.99
2022-12-20T20:19:21.404Z,45.62
2022-12-20T20:22:26.796Z,46.63
2022-12-20T20:24:54.521Z,45.99
2022-12-20T20:27:22.113Z,45.54
2022-12-20T20:29:50.575Z,45.31
2022-12-20T20:32:18.201Z,45.19
2022-12-20T20:34:45.910Z,44.88
2022-12-20T20:37:13.675Z,44.55
2022-12-20T20:39:41.733Z,44.45
2022-12-20T20:42:09.497Z,45.14
2022-12-20T20:44:37.204Z,45.08
2022-12-20T20:47:05.889Z,45.56
2022-12-20T20:49:33.875Z,45.09
2022-12-20T20:52:01.695Z,44.26
2022-12-20T20:54:29.397Z,44.29
2022-12-20T20:56:57.181Z,44.86
2022-12-20T20:59:25.268Z,44.81
2022-12-20T21:01:53.877Z,44.30
2022-12-20T21:04:21.804Z,44.38
2022-12-20T21:06:49.560Z,45.40
2022-12-20T21:09:17.241Z,45.31
2022-12-20T21:11:45.224Z,44.88
2022-12-20T21:14:13.218Z,44.34
2022-12-20T21:16:41.815Z,44.43
2022-12-20T21:19:10.722Z,46.37
2022-12-20T21:21:38.393Z,44.59
2022-12-20T21:24:06.580Z,44.50
2022-12-20T21:26:34.343Z,43.48
2022-12-20T21:29:02.159Z,44.70
2022-12-20T21:31:31.173Z,44.66
2022-12-20T21:33:59.125Z,43.48
2022-12-20T21:36:27.071Z,42.65
2022-12-20T21:38:58.892Z,44.23
2022-12-20T21:41:29.203Z,44.41
2022-12-20T21:43:58.678Z,44.14
2022-12-20T21:46:28.647Z,43.31
2022-12-20T21:48:56.486Z,43.51
2022-12-20T21:51:26.303Z,42.18
2022-12-20T21:53:57.155Z,43.68
2022-12-20T21:56:27.201Z,43.30
2022-12-20T21:58:55.657Z,42.60
2022-12-20T22:01:26.058Z,42.87
2022-12-20T22:03:57.196Z,43.01
2022-12-20T22:06:25.899Z,42.87
2022-12-20T22:08:53.669Z,43.05
2022-12-20T22:11:21.331Z,42.59
2022-12-20T22:13:49.521Z,42.96
2022-12-20T22:16:21.534Z,43.53
2022-12-20T22:18:51.030Z,42.29
2022-12-20T22:21:20.916Z,42.77
2022-12-20T22:23:49.357Z,42.01
2022-12-20T22:26:22.150Z,42.63
2022-12-20T22:28:52.585Z,42.21
2022-12-20T22:31:21.917Z,42.52
2022-12-20T22:33:49.806Z,42.35
2022-12-20T22:36:17.806Z,42.03
2022-12-20T22:38:45.570Z,42.52
2022-12-20T22:41:19.297Z,41.40
2022-12-20T22:43:47.738Z,42.19
2022-12-20T22:46:17.065Z,41.87
2022-12-20T22:48:46.108Z,42.67
2022-12-20T22:51:22.061Z,42.81
2022-12-20T22:53:50.264Z,42.54
2022-12-20T22:56:19.948Z,42.54
2022-12-20T22:58:48.207Z,42.16
2022-12-20T23:01:17.793Z,41.51
2022-12-20T23:03:46.258Z,41.72
2022-12-20T23:06:16.835Z,42.47
2022-12-20T23:08:44.831Z,42.60
2022-12-20T23:11:40.443Z,42.39
2022-12-20T23:14:35.571Z,42.77
2022-12-20T23:17:04.298Z,42.25
2022-12-20T23:19:50.789Z,42.16
2022-12-20T23:22:37.340Z,42.69
2022-12-20T23:25:13.767Z,43.98
2022-12-20T23:27:47.520Z,44.32
2022-12-20T23:30:22.488Z,44.27
2022-12-20T23:32:51.934Z,48.59
2022-12-20T23:35:28.533Z,47.91
2022-12-20T23:37:59.931Z,47.11
2022-12-20T23:40:36.684Z,43.97
2022-12-20T23:43:16.411Z,46.24
2022-12-20T23:45:45.836Z,49.66
2022-12-20T23:48:14.006Z,48.93
2022-12-20T23:50:45.788Z,44.76
2022-12-20T23:53:19.667Z,48.50
2022-12-20T23:59:06.072Z,47.11
